Estación Meteorológica Peña el Pijo (Robertgarden) [ 11/20/18 00:30:36 CET ]

Fecha Hora Presion(HPa) Temp (°C) Humedad % Rocio (°C) Viento ( m/s) Direccion Lluvia 1Hora(mm) Lluvia 24H(mm) LLuvia Total(mm)
2018-Nov-03 01:01:54 1012.000 7.8 79 4.4         94.79
2018-Nov-03 02:02:42 1011.300 5.8 81 2.8         94.79
2018-Nov-03 03:05:11 1011.100 5.2 84 2.7         94.79
2018-Nov-03 04:01:53 1010.600 3.9 85 1.6         94.79
2018-Nov-03 05:01:47 1010.400 3.6 86 1.5         94.79
2018-Nov-03 06:01:57 1010.500 2.9 86 0.8         94.79
2018-Nov-03 07:01:53 1010.300 2.1 86 -0.0         94.79
2018-Nov-03 08:01:50 1010.600 1.3 87 -0.7         94.79
2018-Nov-03 09:01:57 1010.400 3.9 89 2.2         94.79
2018-Nov-03 10:01:36 1010.100 10.3 72 5.5         94.79
2018-Nov-03 11:01:37 1010.100 14.1 45 2.3         94.79
2018-Nov-03 12:01:57 1009.800 15.1 38 0.8         94.79
2018-Nov-03 13:01:54 1009.200 15.6 36 0.4         94.79
2018-Nov-03 14:01:43 1008.500 16.9 30 -0.8         94.79
2018-Nov-03 15:01:40 1008.400 17.8 29 -0.5         94.79
2018-Nov-03 16:01:52 1008.300 17.3 33 0.8         94.79
2018-Nov-03 17:01:34 1008.300 15.1 39 1.2         94.79
2018-Nov-03 18:01:46 1008.600 10.6 49 0.3         94.79
2018-Nov-03 19:02:13 1008.900 7.2 60 -0.0         94.79
2018-Nov-03 20:01:34 1009.100 5.1 67 -0.5         94.79
2018-Nov-03 21:01:40 1009.300 3.8 72 -0.8         94.79
2018-Nov-03 22:01:42 1009.100 2.9 75 -1.1         94.79
2018-Nov-03 23:01:36 1009.000 2.9 76 -0.9         94.79

Temperatura Máxima:17°    Temperatura Mínima:
Presión Máxima:1012.000 Hpa    Presión Mínima:1008.300 Hpa


Volver